Time;durP1;ratioP1;P1;durP2;ratioP2;P2;SDS_P1;SDS_P2;PMS_P1;PMS_P2;Temp;Humidity;BMP_temperature;BMP_pressure;BME280_temperature;BME280_humidity;BME280_pressure;Samples;Min_cycle;Max_cycle;Signal;HPM_P1;HPM_P2
2023/10/02 00:03:31;;;;;;;10.27;8.27;;;;;;;;;;5072193;28;20280;-75
2023/10/02 00:05:58;;;;;;;8.20;7.50;;;;;;;;;;5072559;28;20201;-75
2023/10/02 00:08:39;;;;;;;10.73;7.67;;;;;;;;;;5072388;28;20561;-76
2023/10/02 00:16:59;;;;;;;8.77;7.97;;;;;;;;;;5046419;28;20231;-76
2023/10/02 00:19:32;;;;;;;8.40;7.50;;;;;;;;;;5072320;28;20201;-75
2023/10/02 00:22:04;;;;;;;15.37;10.40;;;;;;;;;;5072298;28;20208;-76
2023/10/02 00:24:32;;;;;;;9.47;8.37;;;;;;;;;;5072107;28;20225;-75
2023/10/02 00:27:01;;;;;;;9.93;8.93;;;;;;;;;;5072522;28;20258;-75
2023/10/02 00:29:29;;;;;;;9.17;8.27;;;;;;;;;;5072403;28;20306;-75
2023/10/02 00:31:57;;;;;;;12.33;9.60;;;;;;;;;;5072076;28;20224;-76
2023/10/02 00:34:31;;;;;;;9.03;8.13;;;;;;;;;;5072047;28;20224;-76
2023/10/02 00:37:06;;;;;;;10.53;9.43;;;;;;;;;;5071595;28;20204;-76
2023/10/02 00:39:35;;;;;;;8.53;7.73;;;;;;;;;;5072174;28;20278;-76
2023/10/02 00:42:24;;;;;;;9.53;8.67;;;;;;;;;;5071607;28;20660;-75
2023/10/02 00:44:52;;;;;;;11.47;8.03;;;;;;;;;;5072069;28;20208;-76
2023/10/02 00:50:20;;;;;;;14.97;8.20;;;;;;;;;;5088141;27;20576;-76
2023/10/02 00:52:58;;;;;;;9.00;8.10;;;;;;;;;;5087593;28;20200;-75
2023/10/02 00:55:26;;;;;;;10.93;8.17;;;;;;;;;;5088094;28;20200;-75
2023/10/02 00:57:56;;;;;;;9.33;8.27;;;;;;;;;;5087686;28;20759;-76
2023/10/02 01:00:30;;;;;;;8.70;7.80;;;;;;;;;;5087856;28;20204;-75
2023/10/02 01:02:59;;;;;;;9.40;7.67;;;;;;;;;;5087254;28;20208;-75
2023/10/02 01:05:30;;;;;;;8.33;7.53;;;;;;;;;;5087816;28;20219;-75
2023/10/02 01:07:58;;;;;;;9.00;8.10;;;;;;;;;;5087547;28;20200;-75
2023/10/02 01:10:29;;;;;;;10.00;8.27;;;;;;;;;;5087785;28;20203;-75
2023/10/02 01:13:01;;;;;;;10.17;9.17;;;;;;;;;;5086968;28;20208;-75
2023/10/02 01:15:29;;;;;;;9.30;8.50;;;;;;;;;;5087423;28;20204;-75
2023/10/02 01:18:18;;;;;;;8.53;7.73;;;;;;;;;;5087002;28;20275;-75
2023/10/02 01:20:48;;;;;;;10.63;8.20;;;;;;;;;;5086875;28;20205;-75
2023/10/02 01:23:17;;;;;;;8.60;7.70;;;;;;;;;;5061722;28;20204;-75
2023/10/02 01:25:46;;;;;;;9.63;7.10;;;;;;;;;;5087671;28;20207;-75
2023/10/02 01:28:15;;;;;;;8.77;7.87;;;;;;;;;;5087569;28;20211;-75
2023/10/02 01:30:44;;;;;;;8.13;7.40;;;;;;;;;;5086528;28;20211;-75
2023/10/02 01:33:17;;;;;;;7.67;6.97;;;;;;;;;;5085627;28;20197;-76
2023/10/02 01:35:48;;;;;;;8.57;7.67;;;;;;;;;;5087130;28;20588;-75
2023/10/02 01:38:18;;;;;;;7.47;6.50;;;;;;;;;;5087252;28;20292;-75
2023/10/02 01:40:49;;;;;;;9.13;6.80;;;;;;;;;;5086788;28;20651;-75
2023/10/02 01:43:20;;;;;;;7.13;6.43;;;;;;;;;;5087187;28;20205;-75
2023/10/02 01:45:49;;;;;;;8.93;6.37;;;;;;;;;;5087235;28;20219;-76
2023/10/02 01:48:36;;;;;;;7.63;6.03;;;;;;;;;;5086990;28;20251;-75
2023/10/02 01:51:15;;;;;;;8.20;7.40;;;;;;;;;;5086845;28;20204;-76
2023/10/02 01:53:43;;;;;;;6.87;6.27;;;;;;;;;;5082321;28;20203;-75
2023/10/02 01:56:12;;;;;;;7.90;6.67;;;;;;;;;;5077679;28;20760;-75
2023/10/02 01:58:42;;;;;;;8.73;5.97;;;;;;;;;;5086921;28;20256;-76
2023/10/02 02:01:10;;;;;;;8.90;6.50;;;;;;;;;;5075519;28;20211;-76
2023/10/02 02:03:38;;;;;;;6.47;5.80;;;;;;;;;;5072587;28;20239;-76
2023/10/02 02:06:10;;;;;;;10.63;6.87;;;;;;;;;;5073185;28;20236;-76
2023/10/02 02:08:38;;;;;;;7.77;6.97;;;;;;;;;;5073517;28;20204;-75
2023/10/02 02:11:16;;;;;;;7.50;6.80;;;;;;;;;;5072624;28;20212;-75
2023/10/02 02:13:46;;;;;;;7.13;6.43;;;;;;;;;;5073080;28;20239;-75
2023/10/02 02:16:16;;;;;;;7.47;6.67;;;;;;;;;;5072184;28;20205;-75
2023/10/02 02:18:43;;;;;;;7.50;6.53;;;;;;;;;;5073063;28;20308;-75
2023/10/02 02:21:15;;;;;;;10.53;7.60;;;;;;;;;;5072668;28;20193;-75
2023/10/02 02:23:42;;;;;;;8.20;6.73;;;;;;;;;;5073138;28;20288;-75
2023/10/02 02:26:09;;;;;;;9.13;7.37;;;;;;;;;;5071934;28;21162;-75
2023/10/02 02:28:43;;;;;;;7.53;6.80;;;;;;;;;;5073182;28;20292;-75
2023/10/02 02:31:29;;;;;;;6.33;5.67;;;;;;;;;;5072645;28;20695;-75
2023/10/02 02:33:58;;;;;;;8.07;6.50;;;;;;;;;;5072609;28;20208;-75
2023/10/02 02:36:26;;;;;;;7.63;6.43;;;;;;;;;;5072381;28;20306;-75
2023/10/02 02:39:08;;;;;;;8.53;5.90;;;;;;;;;;5072411;28;20264;-75
2023/10/02 02:41:36;;;;;;;6.43;5.83;;;;;;;;;;5072294;28;20201;-75
2023/10/02 02:44:04;;;;;;;9.20;7.13;;;;;;;;;;5071336;28;20286;-75
2023/10/02 02:46:32;;;;;;;6.77;6.17;;;;;;;;;;5069350;28;20597;-75
2023/10/02 02:49:00;;;;;;;9.87;6.50;;;;;;;;;;5070871;28;20239;-75
2023/10/02 02:51:27;;;;;;;12.17;6.17;;;;;;;;;;5071803;28;20589;-74
2023/10/02 02:53:55;;;;;;;6.63;5.97;;;;;;;;;;5065748;28;20201;-74
2023/10/02 02:56:23;;;;;;;8.00;6.30;;;;;;;;;;5052227;28;20209;-75
2023/10/02 02:58:52;;;;;;;8.23;6.90;;;;;;;;;;5039635;28;20799;-75
2023/10/02 03:01:23;;;;;;;7.77;5.90;;;;;;;;;;5052556;28;20241;-75
2023/10/02 03:03:52;;;;;;;6.73;6.13;;;;;;;;;;5052861;28;20643;-75
2023/10/02 03:06:22;;;;;;;7.73;6.33;;;;;;;;;;5053534;28;20604;-75
2023/10/02 03:08:51;;;;;;;6.27;5.70;;;;;;;;;;5053868;28;20210;-74
2023/10/02 03:11:19;;;;;;;7.10;6.40;;;;;;;;;;5054466;28;20284;-75
2023/10/02 03:13:47;;;;;;;8.10;6.60;;;;;;;;;;5052784;28;20254;-74
2023/10/02 03:16:17;;;;;;;8.37;6.40;;;;;;;;;;5055257;28;20210;-75
2023/10/02 03:18:44;;;;;;;9.57;6.43;;;;;;;;;;5053711;28;20677;-75
2023/10/02 03:21:21;;;;;;;7.10;6.40;;;;;;;;;;5070438;28;20296;-74
2023/10/02 03:23:49;;;;;;;9.60;6.03;;;;;;;;;;5071830;28;20212;-74
2023/10/02 03:26:37;;;;;;;7.87;5.70;;;;;;;;;;5071822;28;20266;-75
2023/10/02 03:29:05;;;;;;;7.97;6.13;;;;;;;;;;5054766;28;20209;-75
2023/10/02 03:31:43;;;;;;;8.03;5.33;;;;;;;;;;5070459;28;20258;-75
2023/10/02 03:34:27;;;;;;;7.47;6.67;;;;;;;;;;5071222;28;20208;-75
2023/10/02 03:36:59;;;;;;;8.70;6.03;;;;;;;;;;5071204;28;20721;-75
2023/10/02 03:42:12;;;;;;;6.20;5.57;;;;;;;;;;5061939;28;20209;-75
2023/10/02 03:44:39;;;;;;;8.77;6.47;;;;;;;;;;5043308;28;20676;-75
2023/10/02 03:47:06;;;;;;;10.83;6.47;;;;;;;;;;5061997;28;20211;-75
2023/10/02 03:49:33;;;;;;;7.23;5.13;;;;;;;;;;5071369;28;20229;-75
2023/10/02 03:52:01;;;;;;;6.23;5.63;;;;;;;;;;5059393;28;20197;-75
2023/10/02 03:54:29;;;;;;;7.13;6.43;;;;;;;;;;5070972;28;20197;-75
2023/10/02 03:56:56;;;;;;;8.40;6.50;;;;;;;;;;5063417;28;20197;-75
2023/10/02 03:59:26;;;;;;;7.17;6.37;;;;;;;;;;5057980;28;20267;-75
2023/10/02 04:01:54;;;;;;;8.17;6.40;;;;;;;;;;5070688;28;20247;-75
2023/10/02 04:04:21;;;;;;;7.03;6.43;;;;;;;;;;5070553;28;20273;-74
2023/10/02 04:06:50;;;;;;;6.47;5.87;;;;;;;;;;5060589;28;20267;-74
2023/10/02 04:09:23;;;;;;;6.10;5.50;;;;;;;;;;5071277;28;20212;-75
2023/10/02 04:11:52;;;;;;;6.90;6.20;;;;;;;;;;5066755;28;20293;-75
2023/10/02 04:14:23;;;;;;;12.10;8.27;;;;;;;;;;5062710;28;20209;-75
2023/10/02 04:16:51;;;;;;;8.50;6.27;;;;;;;;;;5070452;28;20200;-75
2023/10/02 04:19:23;;;;;;;7.10;6.17;;;;;;;;;;5070357;28;20216;-75
2023/10/02 04:21:52;;;;;;;5.97;5.23;;;;;;;;;;5069870;28;20608;-75
2023/10/02 04:24:24;;;;;;;8.13;6.83;;;;;;;;;;5055858;28;20205;-75
2023/10/02 04:26:54;;;;;;;13.83;7.17;;;;;;;;;;5070290;28;20691;-76
2023/10/02 04:29:26;;;;;;;9.27;6.43;;;;;;;;;;5045539;28;20210;-75
2023/10/02 04:32:12;;;;;;;7.83;6.47;;;;;;;;;;5064855;28;20197;-76
2023/10/02 04:34:38;;;;;;;6.80;6.17;;;;;;;;;;5042915;28;20296;-75
2023/10/02 04:37:19;;;;;;;7.83;6.00;;;;;;;;;;5068719;28;20201;-75
2023/10/02 04:40:14;;;;;;;6.63;5.73;;;;;;;;;;5069066;28;20231;-75
2023/10/02 04:43:14;;;;;;;6.10;5.23;;;;;;;;;;5069540;28;20250;-75
2023/10/02 04:45:44;;;;;;;7.17;5.90;;;;;;;;;;5056268;28;20199;-75
2023/10/02 04:48:10;;;;;;;7.67;6.23;;;;;;;;;;5070504;28;20228;-76
2023/10/02 04:50:45;;;;;;;8.40;6.37;;;;;;;;;;5069519;28;20239;-75
2023/10/02 04:53:22;;;;;;;6.53;5.80;;;;;;;;;;5069664;28;20237;-75
2023/10/02 04:56:07;;;;;;;9.27;6.40;;;;;;;;;;5046798;28;20273;-75
2023/10/02 04:58:36;;;;;;;7.53;5.70;;;;;;;;;;5069439;28;20674;-75
2023/10/02 05:01:24;;;;;;;7.03;5.57;;;;;;;;;;5057616;28;20229;-75
2023/10/02 05:03:52;;;;;;;5.60;5.03;;;;;;;;;;5057475;28;20205;-75
2023/10/02 05:06:42;;;;;;;9.40;6.57;;;;;;;;;;5069905;28;20208;-75
2023/10/02 05:09:25;;;;;;;10.87;6.27;;;;;;;;;;5069928;28;20274;-75
2023/10/02 05:11:55;;;;;;;6.50;5.67;;;;;;;;;;5069978;28;20581;-75
2023/10/02 05:14:28;;;;;;;7.00;5.40;;;;;;;;;;5070409;28;20295;-75
2023/10/02 05:17:16;;;;;;;6.87;5.53;;;;;;;;;;5070555;28;20632;-75
2023/10/02 05:20:02;;;;;;;9.13;6.13;;;;;;;;;;5070392;28;20220;-75
2023/10/02 05:22:30;;;;;;;15.30;6.23;;;;;;;;;;5069839;28;20290;-75
2023/10/02 05:24:59;;;;;;;6.07;5.47;;;;;;;;;;5070220;28;20204;-75
2023/10/02 05:27:30;;;;;;;9.37;6.30;;;;;;;;;;5069327;28;20243;-75
2023/10/02 05:29:59;;;;;;;6.27;5.67;;;;;;;;;;5069826;28;20204;-75
2023/10/02 05:32:31;;;;;;;10.77;6.30;;;;;;;;;;5070283;28;20232;-76
2023/10/02 05:35:05;;;;;;;10.40;7.10;;;;;;;;;;5070767;28;20198;-76
2023/10/02 05:37:33;;;;;;;16.33;6.37;;;;;;;;;;5073641;28;20196;-76
2023/10/02 05:40:37;;;;;;;9.40;5.80;;;;;;;;;;5073455;28;20228;-75
2023/10/02 05:43:10;;;;;;;6.13;5.53;;;;;;;;;;5052960;28;20283;-75
2023/10/02 05:45:47;;;;;;;9.57;5.60;;;;;;;;;;5073383;28;20206;-75
2023/10/02 05:48:15;;;;;;;9.63;6.10;;;;;;;;;;5073574;28;20278;-75
2023/10/02 05:50:47;;;;;;;7.57;6.10;;;;;;;;;;5073223;28;20212;-75
2023/10/02 05:53:15;;;;;;;16.57;8.03;;;;;;;;;;5073299;28;20204;-76
2023/10/02 05:58:31;;;;;;;14.50;6.80;;;;;;;;;;5069222;28;20208;-75
2023/10/02 06:01:02;;;;;;;15.10;7.63;;;;;;;;;;5073151;28;20323;-75
2023/10/02 06:03:34;;;;;;;16.70;7.80;;;;;;;;;;5073037;28;20200;-75
2023/10/02 06:06:15;;;;;;;8.13;7.27;;;;;;;;;;5073199;28;20255;-75
2023/10/02 06:08:43;;;;;;;7.97;6.83;;;;;;;;;;5049045;28;20205;-75
2023/10/02 06:11:25;;;;;;;8.43;6.37;;;;;;;;;;5072459;28;20349;-75
2023/10/02 06:13:55;;;;;;;8.13;6.30;;;;;;;;;;5073065;28;20239;-75
2023/10/02 06:16:24;;;;;;;8.73;5.37;;;;;;;;;;5073228;28;20254;-75
2023/10/02 06:19:00;;;;;;;15.00;7.00;;;;;;;;;;5072559;28;20212;-75
2023/10/02 06:21:29;;;;;;;10.40;6.00;;;;;;;;;;5072609;28;20613;-75
2023/10/02 06:23:56;;;;;;;11.33;5.93;;;;;;;;;;5073300;28;20262;-75
2023/10/02 06:26:29;;;;;;;11.00;5.47;;;;;;;;;;5072478;28;20774;-76
2023/10/02 06:29:22;;;;;;;18.37;6.10;;;;;;;;;;5072606;28;20237;-75
2023/10/02 06:31:51;;;;;;;8.67;6.00;;;;;;;;;;5072554;28;20322;-75
2023/10/02 06:34:18;;;;;;;13.37;5.93;;;;;;;;;;5072926;28;20227;-76
2023/10/02 06:36:48;;;;;;;20.93;7.30;;;;;;;;;;5072534;28;20208;-75
2023/10/02 06:39:17;;;;;;;14.57;6.43;;;;;;;;;;5072333;28;20201;-76
2023/10/02 06:41:46;;;;;;;12.93;6.20;;;;;;;;;;5072137;28;20225;-75
2023/10/02 06:44:18;;;;;;;9.17;5.17;;;;;;;;;;5072592;28;20229;-76
2023/10/02 06:46:53;;;;;;;9.30;5.63;;;;;;;;;;5072076;28;20223;-76
2023/10/02 06:49:21;;;;;;;9.83;5.50;;;;;;;;;;5072962;28;20238;-75
2023/10/02 06:51:49;;;;;;;16.30;6.17;;;;;;;;;;5072401;28;20292;-76
2023/10/02 06:54:18;;;;;;;7.63;4.60;;;;;;;;;;5072919;28;20209;-75
2023/10/02 06:56:45;;;;;;;15.07;6.80;;;;;;;;;;5071488;28;20205;-76
2023/10/02 06:59:12;;;;;;;14.93;5.30;;;;;;;;;;5072399;28;20637;-76
2023/10/02 07:02:01;;;;;;;7.43;4.87;;;;;;;;;;5072222;28;20224;-75
2023/10/02 07:04:30;;;;;;;6.40;4.47;;;;;;;;;;5072028;28;20211;-76
2023/10/02 07:07:03;;;;;;;7.13;4.43;;;;;;;;;;5071544;28;20668;-76
2023/10/02 07:09:34;;;;;;;8.10;4.83;;;;;;;;;;5071919;28;20750;-76
2023/10/02 07:12:08;;;;;;;5.83;3.93;;;;;;;;;;5063845;28;20225;-75
2023/10/02 07:14:36;;;;;;;5.37;4.17;;;;;;;;;;5067509;28;20208;-76
2023/10/02 07:17:16;;;;;;;5.87;4.30;;;;;;;;;;5072368;28;20284;-75
2023/10/02 07:19:49;;;;;;;8.50;4.13;;;;;;;;;;5072094;28;20630;-76
2023/10/02 07:22:23;;;;;;;5.73;4.10;;;;;;;;;;5071381;28;20239;-75
2023/10/02 07:24:52;;;;;;;16.63;6.37;;;;;;;;;;5071661;28;20201;-76
2023/10/02 07:27:25;;;;;;;9.60;4.60;;;;;;;;;;5070724;28;20662;-76
2023/10/02 07:29:53;;;;;;;5.23;4.47;;;;;;;;;;5072175;28;20213;-76
2023/10/02 07:32:23;;;;;;;12.00;5.00;;;;;;;;;;5071326;28;20201;-76
2023/10/02 07:34:51;;;;;;;4.97;4.20;;;;;;;;;;5071794;28;20275;-76
2023/10/02 07:37:21;;;;;;;6.67;4.33;;;;;;;;;;5071130;28;20271;-76
2023/10/02 07:39:56;;;;;;;5.70;4.17;;;;;;;;;;5071729;28;20201;-76
2023/10/02 07:42:28;;;;;;;6.07;4.10;;;;;;;;;;5071546;28;20193;-76
2023/10/02 07:45:11;;;;;;;11.50;3.97;;;;;;;;;;5071570;28;20209;-75
2023/10/02 07:47:55;;;;;;;8.23;4.60;;;;;;;;;;5047470;28;20239;-76
2023/10/02 07:50:33;;;;;;;7.67;3.70;;;;;;;;;;5071359;28;20188;-76
2023/10/02 07:53:04;;;;;;;8.83;4.37;;;;;;;;;;5070798;28;20600;-76
2023/10/02 07:55:32;;;;;;;4.53;3.83;;;;;;;;;;5071535;28;20288;-75
2023/10/02 07:58:00;;;;;;;6.30;4.20;;;;;;;;;;5070426;28;20203;-76
2023/10/02 08:00:40;;;;;;;8.50;4.60;;;;;;;;;;5070879;28;20269;-76
2023/10/02 08:05:57;;;;;;;6.73;4.80;;;;;;;;;;5071095;28;20208;-76
2023/10/02 08:08:31;;;;;;;7.57;4.50;;;;;;;;;;5070642;28;20270;-76
2023/10/02 08:11:01;;;;;;;7.07;4.93;;;;;;;;;;5070815;28;20287;-76
2023/10/02 08:13:35;;;;;;;7.33;4.60;;;;;;;;;;5071081;28;20193;-76
2023/10/02 08:16:06;;;;;;;5.80;5.20;;;;;;;;;;5070519;28;20205;-76
2023/10/02 08:18:55;;;;;;;6.87;4.80;;;;;;;;;;5070633;28;20255;-75
2023/10/02 08:21:24;;;;;;;7.97;4.60;;;;;;;;;;5069685;28;20228;-76
2023/10/02 08:23:52;;;;;;;6.13;4.83;;;;;;;;;;5070870;28;20209;-76
2023/10/02 08:26:19;;;;;;;8.97;5.30;;;;;;;;;;5070497;28;20291;-76
2023/10/02 08:28:46;;;;;;;6.67;5.03;;;;;;;;;;5070547;28;20691;-76
2023/10/02 08:31:14;;;;;;;8.03;5.50;;;;;;;;;;5069978;28;20691;-76
2023/10/02 08:33:43;;;;;;;5.70;5.07;;;;;;;;;;5057968;28;20680;-76
2023/10/02 08:36:12;;;;;;;7.80;5.17;;;;;;;;;;5070282;28;20644;-76
2023/10/02 08:38:40;;;;;;;8.77;5.60;;;;;;;;;;5070583;28;20233;-76
2023/10/02 08:41:08;;;;;;;10.77;4.97;;;;;;;;;;5070441;28;20233;-76
2023/10/02 08:43:41;;;;;;;10.63;4.60;;;;;;;;;;5070084;28;20687;-76
2023/10/02 08:46:18;;;;;;;11.43;5.40;;;;;;;;;;5061832;28;20247;-75
2023/10/02 08:48:54;;;;;;;10.70;5.33;;;;;;;;;;5066791;28;20225;-76
2023/10/02 08:51:29;;;;;;;7.47;5.73;;;;;;;;;;5070131;28;20653;-76
2023/10/02 08:53:59;;;;;;;7.07;5.37;;;;;;;;;;5070520;28;20200;-76
2023/10/02 08:56:37;;;;;;;6.50;5.80;;;;;;;;;;5070637;28;20209;-76
2023/10/02 08:59:18;;;;;;;6.73;4.37;;;;;;;;;;5070569;28;20270;-75
2023/10/02 09:01:48;;;;;;;10.37;5.13;;;;;;;;;;5070062;28;20604;-76
2023/10/02 09:04:28;;;;;;;6.80;5.57;;;;;;;;;;5070475;28;20231;-76
2023/10/02 09:06:59;;;;;;;7.87;5.70;;;;;;;;;;5069972;28;20201;-75
2023/10/02 09:09:28;;;;;;;7.43;5.87;;;;;;;;;;5070577;28;20228;-76
2023/10/02 09:11:57;;;;;;;8.67;5.20;;;;;;;;;;5048245;28;20200;-76
2023/10/02 09:14:39;;;;;;;8.97;4.47;;;;;;;;;;5074175;28;20197;-76
2023/10/02 09:17:16;;;;;;;10.17;5.63;;;;;;;;;;5073904;28;20208;-76
2023/10/02 09:19:51;;;;;;;6.73;4.67;;;;;;;;;;5073713;28;20647;-76
2023/10/02 09:22:20;;;;;;;6.90;5.37;;;;;;;;;;5074263;28;20228;-76
2023/10/02 09:24:59;;;;;;;8.70;5.27;;;;;;;;;;5073971;28;20232;-76
2023/10/02 09:27:28;;;;;;;6.90;5.43;;;;;;;;;;5074136;28;20197;-76
2023/10/02 09:32:49;;;;;;;6.93;4.67;;;;;;;;;;5073387;28;20204;-76
2023/10/02 09:35:29;;;;;;;9.77;5.03;;;;;;;;;;5074213;28;20710;-76
2023/10/02 09:38:02;;;;;;;6.93;4.93;;;;;;;;;;5049254;28;20232;-76
2023/10/02 09:40:53;;;;;;;10.83;5.40;;;;;;;;;;5073220;28;20205;-76
2023/10/02 09:43:19;;;;;;;9.30;5.90;;;;;;;;;;5073564;28;20600;-76
2023/10/02 09:45:48;;;;;;;6.43;5.10;;;;;;;;;;5073760;28;20208;-76
2023/10/02 09:51:06;;;;;;;7.73;5.90;;;;;;;;;;5050706;28;20201;-76
2023/10/02 09:53:35;;;;;;;8.03;5.10;;;;;;;;;;5073549;28;20220;-75
2023/10/02 09:56:10;;;;;;;6.53;5.37;;;;;;;;;;5073521;28;20684;-76
2023/10/02 09:58:48;;;;;;;12.43;5.83;;;;;;;;;;5073398;28;20222;-76
2023/10/02 10:01:36;;;;;;;8.50;5.13;;;;;;;;;;5073234;28;20260;-76
2023/10/02 10:04:30;;;;;;;6.93;5.27;;;;;;;;;;5073212;28;20193;-76
2023/10/02 10:07:09;;;;;;;7.50;4.70;;;;;;;;;;5072752;28;20204;-76
2023/10/02 10:09:50;;;;;;;8.37;4.90;;;;;;;;;;5059208;28;20205;-76
2023/10/02 10:12:50;;;;;;;6.60;5.77;;;;;;;;;;5073036;28;20251;-75
2023/10/02 10:15:27;;;;;;;6.33;5.63;;;;;;;;;;5072907;28;20201;-75
2023/10/02 10:17:56;;;;;;;9.83;5.77;;;;;;;;;;5072831;28;20205;-75
2023/10/02 10:20:26;;;;;;;5.87;5.00;;;;;;;;;;5073445;28;20216;-75
2023/10/02 10:22:56;;;;;;;18.70;7.07;;;;;;;;;;5071885;28;20233;-75
2023/10/02 10:25:50;;;;;;;6.20;5.13;;;;;;;;;;5073428;28;20205;-75
2023/10/02 10:28:33;;;;;;;7.27;4.57;;;;;;;;;;5049271;28;20197;-75
2023/10/02 10:31:01;;;;;;;8.80;4.93;;;;;;;;;;5071306;28;20619;-75
2023/10/02 10:33:36;;;;;;;6.40;4.80;;;;;;;;;;5062113;28;20225;-75
2023/10/02 10:36:09;;;;;;;10.57;4.37;;;;;;;;;;5071848;28;20196;-75
2023/10/02 10:38:44;;;;;;;6.87;4.80;;;;;;;;;;5072827;28;20292;-75
2023/10/02 10:41:27;;;;;;;13.33;6.43;;;;;;;;;;5072649;28;20232;-75
2023/10/02 10:43:59;;;;;;;9.07;5.43;;;;;;;;;;5072153;28;20679;-75
2023/10/02 10:46:27;;;;;;;11.60;5.67;;;;;;;;;;5072238;28;20211;-75
2023/10/02 10:49:07;;;;;;;8.63;5.60;;;;;;;;;;5072377;28;20221;-75
2023/10/02 10:51:34;;;;;;;6.77;5.77;;;;;;;;;;5071907;28;20201;-75
2023/10/02 10:54:13;;;;;;;6.47;5.23;;;;;;;;;;5072932;28;20632;-76
2023/10/02 10:56:44;;;;;;;7.93;5.10;;;;;;;;;;5071908;28;20201;-75
2023/10/02 10:59:12;;;;;;;8.43;5.40;;;;;;;;;;5072144;28;20201;-75
2023/10/02 11:01:39;;;;;;;10.73;5.17;;;;;;;;;;5072033;28;20240;-76
2023/10/02 11:04:06;;;;;;;11.50;4.87;;;;;;;;;;5072008;28;20205;-76
2023/10/02 11:06:41;;;;;;;11.50;4.93;;;;;;;;;;5071913;28;20663;-76
2023/10/02 11:09:16;;;;;;;6.30;5.50;;;;;;;;;;5072134;28;20211;-76
2023/10/02 11:11:49;;;;;;;10.00;5.60;;;;;;;;;;5071403;28;20196;-76
2023/10/02 11:14:20;;;;;;;7.07;4.77;;;;;;;;;;5072047;28;20262;-76
2023/10/02 11:16:51;;;;;;;9.97;5.53;;;;;;;;;;5071593;28;20208;-76
2023/10/02 11:19:25;;;;;;;8.20;5.80;;;;;;;;;;5071341;28;20586;-76
2023/10/02 11:22:14;;;;;;;8.57;5.63;;;;;;;;;;5071773;28;20315;-76
2023/10/02 11:24:43;;;;;;;9.70;5.17;;;;;;;;;;5071607;28;20204;-76
2023/10/02 11:27:14;;;;;;;7.53;5.13;;;;;;;;;;5071439;28;20201;-76
2023/10/02 11:29:42;;;;;;;8.07;5.30;;;;;;;;;;5071317;28;20756;-76
2023/10/02 11:32:22;;;;;;;10.37;4.90;;;;;;;;;;5071365;28;20201;-76
2023/10/02 11:34:50;;;;;;;7.93;4.97;;;;;;;;;;5071678;28;20193;-76
2023/10/02 11:37:18;;;;;;;11.87;5.33;;;;;;;;;;5070969;28;20205;-75
2023/10/02 11:39:50;;;;;;;10.57;5.93;;;;;;;;;;5072110;28;20204;-76
2023/10/02 11:42:19;;;;;;;18.17;6.60;;;;;;;;;;5070652;28;20253;-76
2023/10/02 11:44:46;;;;;;;16.33;5.07;;;;;;;;;;5071472;28;20205;-75
2023/10/02 11:47:13;;;;;;;10.00;5.73;;;;;;;;;;5071611;28;20208;-75
2023/10/02 11:49:41;;;;;;;14.80;6.33;;;;;;;;;;5070853;28;20625;-76
2023/10/02 11:52:09;;;;;;;23.80;8.93;;;;;;;;;;5070783;28;20215;-76
2023/10/02 11:54:36;;;;;;;8.43;4.50;;;;;;;;;;5071183;28;20198;-76
2023/10/02 11:57:09;;;;;;;7.40;5.13;;;;;;;;;;5071449;28;20209;-76
2023/10/02 11:59:41;;;;;;;6.33;4.73;;;;;;;;;;5071348;28;20201;-76
2023/10/02 12:02:10;;;;;;;4.40;3.77;;;;;;;;;;5045151;28;20229;-75
2023/10/02 12:04:37;;;;;;;6.60;4.47;;;;;;;;;;5071232;28;20201;-76
2023/10/02 12:07:05;;;;;;;7.73;4.90;;;;;;;;;;5071173;28;20216;-75
2023/10/02 12:09:33;;;;;;;5.77;4.20;;;;;;;;;;5070785;28;20612;-76
2023/10/02 12:12:00;;;;;;;10.17;4.93;;;;;;;;;;5070828;28;20224;-76
2023/10/02 12:14:29;;;;;;;6.03;4.33;;;;;;;;;;5070918;28;20208;-76
2023/10/02 12:16:57;;;;;;;7.27;4.80;;;;;;;;;;5070900;28;20201;-75
2023/10/02 12:19:24;;;;;;;6.07;4.17;;;;;;;;;;5070224;28;20211;-76
2023/10/02 12:21:51;;;;;;;10.00;4.77;;;;;;;;;;5070697;28;20225;-75
2023/10/02 12:24:18;;;;;;;5.87;4.60;;;;;;;;;;5071120;28;20208;-76
2023/10/02 12:26:46;;;;;;;8.10;4.63;;;;;;;;;;5070840;28;20757;-76
2023/10/02 12:29:13;;;;;;;8.17;5.20;;;;;;;;;;5070137;28;20196;-76
2023/10/02 12:31:42;;;;;;;8.77;4.40;;;;;;;;;;5070354;28;20204;-76
2023/10/02 12:34:10;;;;;;;6.20;3.70;;;;;;;;;;5070681;28;20660;-75
2023/10/02 12:36:37;;;;;;;8.13;5.23;;;;;;;;;;5070806;28;20205;-75
2023/10/02 12:39:09;;;;;;;6.40;3.97;;;;;;;;;;5070641;28;20209;-75
2023/10/02 12:41:36;;;;;;;7.03;4.93;;;;;;;;;;5070499;28;20225;-76
2023/10/02 12:44:02;;;;;;;7.00;4.77;;;;;;;;;;5070263;28;20201;-76
2023/10/02 12:46:30;;;;;;;8.23;4.40;;;;;;;;;;5070504;28;20664;-76
2023/10/02 12:49:01;;;;;;;7.90;5.23;;;;;;;;;;5070326;28;20298;-76
2023/10/02 12:51:31;;;;;;;7.20;4.70;;;;;;;;;;5070749;28;20255;-75
2023/10/02 12:53:57;;;;;;;4.83;3.67;;;;;;;;;;5070384;28;20197;-75
2023/10/02 12:56:25;;;;;;;4.93;3.77;;;;;;;;;;5070438;28;20204;-75
2023/10/02 12:58:53;;;;;;;9.20;4.57;;;;;;;;;;5070433;28;20284;-75
2023/10/02 13:01:24;;;;;;;7.67;5.07;;;;;;;;;;5070230;28;20274;-76
2023/10/02 13:03:51;;;;;;;8.00;4.37;;;;;;;;;;5070297;28;20207;-76
2023/10/02 13:06:20;;;;;;;7.63;4.63;;;;;;;;;;5070066;28;20262;-75
2023/10/02 13:08:47;;;;;;;8.53;3.90;;;;;;;;;;5070332;28;20698;-76
2023/10/02 13:11:18;;;;;;;8.00;4.10;;;;;;;;;;5070597;28;20204;-76
2023/10/02 13:13:47;;;;;;;6.97;4.70;;;;;;;;;;5070121;28;20254;-76
2023/10/02 13:16:14;;;;;;;13.53;5.00;;;;;;;;;;5069501;28;20574;-76
2023/10/02 13:18:43;;;;;;;8.90;4.57;;;;;;;;;;5069821;28;20208;-76
2023/10/02 13:21:11;;;;;;;7.60;4.47;;;;;;;;;;5070235;28;20193;-76
2023/10/02 13:23:39;;;;;;;22.70;5.23;;;;;;;;;;5070208;28;20225;-75
2023/10/02 13:26:06;;;;;;;8.50;5.10;;;;;;;;;;5056501;28;20975;-75
2023/10/02 13:28:34;;;;;;;9.53;4.33;;;;;;;;;;5070353;28;20208;-76
2023/10/02 13:31:09;;;;;;;6.83;4.63;;;;;;;;;;5069109;28;20205;-76
2023/10/02 13:33:36;;;;;;;5.80;4.47;;;;;;;;;;5070445;28;20275;-76
2023/10/02 13:36:07;;;;;;;7.93;4.57;;;;;;;;;;5069607;28;20232;-75
2023/10/02 13:38:33;;;;;;;5.93;4.17;;;;;;;;;;5070296;28;20213;-76
2023/10/02 13:41:09;;;;;;;6.97;4.60;;;;;;;;;;5070138;28;20212;-76
2023/10/02 13:43:37;;;;;;;6.40;4.57;;;;;;;;;;5069641;28;20228;-75
2023/10/02 13:46:09;;;;;;;5.53;4.63;;;;;;;;;;5070179;28;20215;-76
2023/10/02 13:48:37;;;;;;;11.70;5.23;;;;;;;;;;5070056;28;20232;-76
2023/10/02 13:51:05;;;;;;;6.50;4.57;;;;;;;;;;5069638;28;20204;-76
2023/10/02 13:53:32;;;;;;;9.43;5.07;;;;;;;;;;5070602;28;20197;-76
2023/10/02 13:56:03;;;;;;;6.40;4.40;;;;;;;;;;5070292;28;20687;-76
2023/10/02 13:58:32;;;;;;;6.93;4.10;;;;;;;;;;5073589;28;20197;-76
2023/10/02 14:01:03;;;;;;;10.07;4.50;;;;;;;;;;5073658;28;20287;-75
2023/10/02 14:03:31;;;;;;;6.30;4.37;;;;;;;;;;5072897;28;20221;-75
2023/10/02 14:05:58;;;;;;;5.67;4.10;;;;;;;;;;5072838;28;20243;-75
2023/10/02 14:08:25;;;;;;;9.50;4.30;;;;;;;;;;5072593;28;20193;-75
2023/10/02 14:10:52;;;;;;;6.57;4.10;;;;;;;;;;5073095;28;20205;-75
2023/10/02 14:13:18;;;;;;;6.90;4.50;;;;;;;;;;5073041;28;20696;-75
2023/10/02 14:15:47;;;;;;;5.37;4.33;;;;;;;;;;5073062;28;20258;-75
2023/10/02 14:18:15;;;;;;;7.53;4.60;;;;;;;;;;5072745;28;20583;-75
2023/10/02 14:20:41;;;;;;;4.77;4.23;;;;;;;;;;5073040;28;20216;-75
2023/10/02 14:23:08;;;;;;;11.03;5.33;;;;;;;;;;5072633;28;20221;-75
2023/10/02 14:25:40;;;;;;;10.07;4.53;;;;;;;;;;5073439;28;20204;-75
2023/10/02 14:28:10;;;;;;;8.53;4.63;;;;;;;;;;5047663;28;20231;-75
2023/10/02 14:30:39;;;;;;;7.37;4.30;;;;;;;;;;5072809;28;20585;-75
2023/10/02 14:33:07;;;;;;;7.63;4.80;;;;;;;;;;5073034;28;20232;-75
2023/10/02 14:35:36;;;;;;;6.73;4.07;;;;;;;;;;5072518;28;20250;-75
2023/10/02 14:38:03;;;;;;;8.40;5.07;;;;;;;;;;5072471;28;20695;-75
2023/10/02 14:40:30;;;;;;;9.83;4.87;;;;;;;;;;5072072;28;20251;-75
2023/10/02 14:42:57;;;;;;;8.67;5.07;;;;;;;;;;5072603;28;20217;-75
2023/10/02 14:45:26;;;;;;;7.53;4.60;;;;;;;;;;5072183;28;20208;-75
2023/10/02 14:47:55;;;;;;;4.87;3.90;;;;;;;;;;5072140;28;20201;-75
2023/10/02 14:50:24;;;;;;;12.53;5.37;;;;;;;;;;5072612;28;20296;-75
2023/10/02 14:52:52;;;;;;;7.77;4.37;;;;;;;;;;5072415;28;20205;-75
2023/10/02 14:55:19;;;;;;;11.53;5.10;;;;;;;;;;5067892;28;20683;-75
2023/10/02 14:57:47;;;;;;;6.23;4.50;;;;;;;;;;5063437;28;20197;-75
2023/10/02 15:00:14;;;;;;;76.20;33.40;;;;;;;;;;5071989;28;20291;-75
2023/10/02 15:02:42;;;;;;;53.73;29.37;;;;;;;;;;5071816;28;20220;-75
2023/10/02 15:05:14;;;;;;;27.70;13.83;;;;;;;;;;5072371;28;20204;-75
2023/10/02 15:07:44;;;;;;;8.50;5.00;;;;;;;;;;5071899;28;20201;-75
2023/10/02 15:10:12;;;;;;;4.70;4.10;;;;;;;;;;5072355;28;20237;-75
2023/10/02 15:12:41;;;;;;;6.60;4.53;;;;;;;;;;5071505;28;20208;-75
2023/10/02 15:15:13;;;;;;;6.03;4.20;;;;;;;;;;5045980;28;20293;-75
2023/10/02 15:17:42;;;;;;;6.70;3.97;;;;;;;;;;5072157;28;20216;-75
2023/10/02 15:20:14;;;;;;;5.57;4.20;;;;;;;;;;5072264;28;20204;-75
2023/10/02 15:22:44;;;;;;;7.00;3.60;;;;;;;;;;5071181;28;20618;-75
2023/10/02 15:25:13;;;;;;;10.83;5.30;;;;;;;;;;5071765;28;20672;-75
2023/10/02 15:27:42;;;;;;;9.47;3.70;;;;;;;;;;5071964;28;20285;-75
2023/10/02 15:30:11;;;;;;;12.50;8.57;;;;;;;;;;5071780;28;20629;-75
2023/10/02 15:32:38;;;;;;;10.20;7.07;;;;;;;;;;5070874;28;20205;-75